Maricopa, California
Current Conditions -  °F | °C
As of 11:54 PM on Friday 19 Dec 2014 (Local Time) from KBFL Reporting Station
Overcast Overcast  
Wind Chill: 55°   Ceiling: 3200
Heat Index: 55°   Visibility: 10mi
Dew Point: 47°   Wind: 3mph
Humidity: 74%   Direction: 100°E
Pressure: 30.21"   Gusts: NA
Location:  35.06°N, 119.4°W
Report Text: KBFL 200754Z AUTO 10003KT 10SM BKN032 OVC038 13/08 A3021 RMK AO2 SLP230 T01280083 401560067
Loading
Personal Weather Stations






























Interactive Weather Map New forecast layout! Learn more

10-Day Weather Forecast

Advertisements
Track Severe Weather on mobile